EIN56AR EGKK-EIDW
Flight info
| Callsign | EIN56AR |
|---|---|
| Flight time | N/A |
| Altitude | 34000 |
| Route | IMVUR N63 VOUGA N14 BIBPE DCT OKTAD DCT MEDOG DCT KRAGY DCT PEMOB M17 VATRY VATRY4L |
| Aircraft | A339/H-SADE1E2E3GHIJ3J5M1P2RWXY/LB2D1 |
Departure
| Time | 2026-05-04 18:15 |
|---|---|
| Airport | London Gatwick Airport (EGKK) |
Arrival
| Time | N/A |
|---|---|
| Airport | Dublin Airport (EIDW) |
| Time | Latitude | Longitude | Altitude | Speed | Heading |
|---|---|---|---|---|---|
| 2026-05-04 17:37 | 51.15774 | -0.16939 | 209 ft | 0 kts | 70° |
| 2026-05-04 17:43 | 51.15769 | -0.16958 | 219 ft | 2 kts | 82° |
| 2026-05-04 17:43 | 51.15767 | -0.16991 | 216 ft | 2 kts | 338° |
| 2026-05-04 17:43 | 51.15769 | -0.17013 | 217 ft | 4 kts | 298° |
| 2026-05-04 17:43 | 51.15764 | -0.17046 | 215 ft | 4 kts | 213° |
| 2026-05-04 17:44 | 51.15737 | -0.17048 | 214 ft | 4 kts | 178° |
| 2026-05-04 17:44 | 51.15733 | -0.17048 | 215 ft | 0 kts | 177° |
| 2026-05-04 17:47 | 51.15722 | -0.17046 | 214 ft | 3 kts | 174° |
| 2026-05-04 17:47 | 51.15704 | -0.17041 | 214 ft | 0 kts | 170° |
| 2026-05-04 17:47 | 51.15700 | -0.17039 | 215 ft | 2 kts | 170° |
| 2026-05-04 17:48 | 51.15698 | -0.17039 | 215 ft | 0 kts | 170° |
| 2026-05-04 17:48 | 51.15689 | -0.17036 | 217 ft | 3 kts | 170° |
| 2026-05-04 17:49 | 51.15662 | -0.17044 | 217 ft | 4 kts | 202° |
| 2026-05-04 17:49 | 51.15643 | -0.17090 | 209 ft | 6 kts | 241° |
| 2026-05-04 17:49 | 51.15627 | -0.17168 | 212 ft | 9 kts | 255° |
| 2026-05-04 17:49 | 51.15608 | -0.17278 | 215 ft | 12 kts | 255° |
| 2026-05-04 17:50 | 51.15580 | -0.17410 | 215 ft | 14 kts | 238° |
| 2026-05-04 17:50 | 51.15535 | -0.17543 | 212 ft | 14 kts | 255° |
| 2026-05-04 17:50 | 51.15511 | -0.17709 | 213 ft | 16 kts | 258° |
| 2026-05-04 17:50 | 51.15487 | -0.17890 | 217 ft | 17 kts | 257° |
| 2026-05-04 17:51 | 51.15462 | -0.18066 | 215 ft | 10 kts | 257° |
| 2026-05-04 17:51 | 51.15460 | -0.18079 | 221 ft | 0 kts | 257° |
| 2026-05-04 17:51 | 51.15460 | -0.18081 | 221 ft | 1 kts | 257° |
| 2026-05-04 17:51 | 51.15456 | -0.18108 | 217 ft | 4 kts | 257° |
| 2026-05-04 17:52 | 51.15446 | -0.18177 | 219 ft | 8 kts | 257° |
| 2026-05-04 17:52 | 51.15417 | -0.18257 | 214 ft | 8 kts | 211° |
| 2026-05-04 17:52 | 51.15354 | -0.18261 | 215 ft | 10 kts | 172° |
| 2026-05-04 17:52 | 51.15277 | -0.18236 | 215 ft | 12 kts | 168° |
| 2026-05-04 17:53 | 51.15197 | -0.18257 | 214 ft | 10 kts | 230° |
| 2026-05-04 17:53 | 51.15180 | -0.18369 | 215 ft | 12 kts | 257° |
| 2026-05-04 17:53 | 51.15161 | -0.18509 | 217 ft | 14 kts | 257° |
| 2026-05-04 17:53 | 51.15138 | -0.18673 | 209 ft | 17 kts | 257° |
| 2026-05-04 17:54 | 51.15112 | -0.18864 | 216 ft | 19 kts | 258° |
| 2026-05-04 17:54 | 51.15083 | -0.19072 | 212 ft | 20 kts | 257° |
| 2026-05-04 17:54 | 51.15059 | -0.19222 | 210 ft | 12 kts | 248° |
| 2026-05-04 17:54 | 51.14996 | -0.19256 | 216 ft | 8 kts | 180° |
| 2026-05-04 17:55 | 51.14964 | -0.19305 | 218 ft | 7 kts | 241° |
| 2026-05-04 17:55 | 51.14948 | -0.19393 | 218 ft | 12 kts | 257° |
| 2026-05-04 17:55 | 51.14922 | -0.19583 | 215 ft | 23 kts | 257° |
| 2026-05-04 17:55 | 51.14881 | -0.19885 | 219 ft | 33 kts | 258° |
| 2026-05-04 17:56 | 51.14837 | -0.20199 | 213 ft | 17 kts | 257° |
| 2026-05-04 17:56 | 51.14807 | -0.20410 | 217 ft | 23 kts | 257° |
| 2026-05-04 17:56 | 51.14772 | -0.20667 | 209 ft | 26 kts | 257° |
| 2026-05-04 17:56 | 51.14742 | -0.20883 | 216 ft | 16 kts | 257° |
| 2026-05-04 17:57 | 51.14720 | -0.21043 | 212 ft | 12 kts | 258° |
| 2026-05-04 17:57 | 51.14711 | -0.21107 | 218 ft | 0 kts | 257° |
| 2026-05-04 17:57 | 51.14709 | -0.21116 | 215 ft | 2 kts | 257° |
| 2026-05-04 17:57 | 51.14704 | -0.21156 | 212 ft | 5 kts | 257° |
| 2026-05-04 17:58 | 51.14697 | -0.21207 | 218 ft | 0 kts | 257° |
| 2026-05-04 18:01 | 51.14697 | -0.21209 | 210 ft | 1 kts | 257° |
| 2026-05-04 18:01 | 51.14696 | -0.21212 | 210 ft | 0 kts | 257° |
| 2026-05-04 18:07 | 51.14695 | -0.21222 | 210 ft | 2 kts | 257° |
| 2026-05-04 18:08 | 51.14689 | -0.21259 | 213 ft | 5 kts | 256° |
| 2026-05-04 18:08 | 51.14667 | -0.21312 | 220 ft | 6 kts | 224° |
| 2026-05-04 18:08 | 51.14661 | -0.21317 | 219 ft | 0 kts | 215° |
| 2026-05-04 18:10 | 51.14653 | -0.21321 | 215 ft | 3 kts | 203° |
| 2026-05-04 18:11 | 51.14625 | -0.21325 | 211 ft | 5 kts | 182° |
| 2026-05-04 18:11 | 51.14617 | -0.21324 | 214 ft | 0 kts | 178° |
| 2026-05-04 18:13 | 51.14616 | -0.21324 | 214 ft | 1 kts | 178° |
| 2026-05-04 18:13 | 51.14589 | -0.21312 | 212 ft | 10 kts | 165° |
| 2026-05-04 18:13 | 51.14527 | -0.21130 | 219 ft | 0 kts | 80° |
| 2026-05-04 18:15 | 51.14601 | -0.20590 | 218 ft | 100 kts | 78° |
| 2026-05-04 18:15 | 51.15066 | -0.17122 | 1106 ft | 179 kts | 78° |
| 2026-05-04 18:15 | 51.15343 | -0.15173 | 2194 ft | 181 kts | 72° |
| 2026-05-04 18:16 | 51.15677 | -0.13208 | 3172 ft | 190 kts | 73° |
| 2026-05-04 18:16 | 51.16052 | -0.11135 | 3986 ft | 201 kts | 67° |
| 2026-05-04 18:16 | 51.16717 | -0.09020 | 4398 ft | 230 kts | 63° |